sensor_id;sensor_type;location;lat;lon;timestamp;temperature;humidity
16627;DHT22;8427;52.204;7.202;2023-05-21T00:02:24;14.60;72.60
16627;DHT22;8427;52.204;7.202;2023-05-21T00:04:55;14.60;73.30
16627;DHT22;8427;52.204;7.202;2023-05-21T00:07:23;14.50;73.30
16627;DHT22;8427;52.204;7.202;2023-05-21T00:09:51;14.60;73.00
16627;DHT22;8427;52.204;7.202;2023-05-21T00:12:19;14.60;74.20
16627;DHT22;8427;52.204;7.202;2023-05-21T00:14:47;14.60;75.10
16627;DHT22;8427;52.204;7.202;2023-05-21T00:17:16;14.50;73.90
16627;DHT22;8427;52.204;7.202;2023-05-21T00:19:44;14.50;75.30
16627;DHT22;8427;52.204;7.202;2023-05-21T00:22:12;14.60;75.30
16627;DHT22;8427;52.204;7.202;2023-05-21T00:24:41;14.50;75.30
16627;DHT22;8427;52.204;7.202;2023-05-21T00:27:11;14.60;75.40
16627;DHT22;8427;52.204;7.202;2023-05-21T00:29:39;14.50;75.40
16627;DHT22;8427;52.204;7.202;2023-05-21T00:32:09;14.40;75.00
16627;DHT22;8427;52.204;7.202;2023-05-21T00:34:39;14.50;74.80
16627;DHT22;8427;52.204;7.202;2023-05-21T00:37:07;14.40;74.70
16627;DHT22;8427;52.204;7.202;2023-05-21T00:39:36;14.30;75.50
16627;DHT22;8427;52.204;7.202;2023-05-21T00:42:04;14.30;75.30
16627;DHT22;8427;52.204;7.202;2023-05-21T00:44:32;14.40;75.20
16627;DHT22;8427;52.204;7.202;2023-05-21T00:47:01;14.30;75.90
16627;DHT22;8427;52.204;7.202;2023-05-21T00:49:29;14.20;75.50
16627;DHT22;8427;52.204;7.202;2023-05-21T00:51:59;14.30;75.60
16627;DHT22;8427;52.204;7.202;2023-05-21T00:54:28;14.30;75.60
16627;DHT22;8427;52.204;7.202;2023-05-21T00:56:56;14.20;75.80
16627;DHT22;8427;52.204;7.202;2023-05-21T00:59:25;14.20;76.00
16627;DHT22;8427;52.204;7.202;2023-05-21T01:01:53;14.20;76.20
16627;DHT22;8427;52.204;7.202;2023-05-21T01:04:22;14.10;76.30
16627;DHT22;8427;52.204;7.202;2023-05-21T01:06:50;14.10;76.60
16627;DHT22;8427;52.204;7.202;2023-05-21T01:09:23;14.10;76.90
16627;DHT22;8427;52.204;7.202;2023-05-21T01:11:51;14.00;76.90
16627;DHT22;8427;52.204;7.202;2023-05-21T01:14:21;14.00;76.70
16627;DHT22;8427;52.204;7.202;2023-05-21T01:16:50;14.10;76.90
16627;DHT22;8427;52.204;7.202;2023-05-21T01:19:21;14.10;77.00
16627;DHT22;8427;52.204;7.202;2023-05-21T01:21:51;13.90;76.90
16627;DHT22;8427;52.204;7.202;2023-05-21T01:24:20;14.00;77.30
16627;DHT22;8427;52.204;7.202;2023-05-21T01:26:48;13.90;77.40
16627;DHT22;8427;52.204;7.202;2023-05-21T01:29:17;13.90;77.70
16627;DHT22;8427;52.204;7.202;2023-05-21T01:31:52;13.90;78.10
16627;DHT22;8427;52.204;7.202;2023-05-21T01:34:29;13.80;78.50
16627;DHT22;8427;52.204;7.202;2023-05-21T01:37:05;13.70;78.60
16627;DHT22;8427;52.204;7.202;2023-05-21T01:39:38;13.70;78.60
16627;DHT22;8427;52.204;7.202;2023-05-21T01:42:09;13.70;78.70
16627;DHT22;8427;52.204;7.202;2023-05-21T01:44:39;13.60;79.20
16627;DHT22;8427;52.204;7.202;2023-05-21T01:47:08;13.60;79.30
16627;DHT22;8427;52.204;7.202;2023-05-21T01:49:37;13.50;79.50
16627;DHT22;8427;52.204;7.202;2023-05-21T01:52:05;13.40;79.90
16627;DHT22;8427;52.204;7.202;2023-05-21T01:54:33;13.40;80.30
16627;DHT22;8427;52.204;7.202;2023-05-21T01:57:03;13.40;80.00
16627;DHT22;8427;52.204;7.202;2023-05-21T01:59:31;13.30;80.30
16627;DHT22;8427;52.204;7.202;2023-05-21T02:01:59;13.30;80.00
16627;DHT22;8427;52.204;7.202;2023-05-21T02:04:27;13.30;80.30
16627;DHT22;8427;52.204;7.202;2023-05-21T02:06:55;13.30;80.50
16627;DHT22;8427;52.204;7.202;2023-05-21T02:09:23;13.30;80.40
16627;DHT22;8427;52.204;7.202;2023-05-21T02:11:51;13.20;80.50
16627;DHT22;8427;52.204;7.202;2023-05-21T02:14:20;13.20;80.70
16627;DHT22;8427;52.204;7.202;2023-05-21T02:16:50;13.10;81.40
16627;DHT22;8427;52.204;7.202;2023-05-21T02:19:19;13.10;81.40
16627;DHT22;8427;52.204;7.202;2023-05-21T02:21:47;13.00;81.70
16627;DHT22;8427;52.204;7.202;2023-05-21T02:24:15;13.10;81.50
16627;DHT22;8427;52.204;7.202;2023-05-21T02:26:43;13.00;81.60
16627;DHT22;8427;52.204;7.202;2023-05-21T02:29:11;13.00;81.60
16627;DHT22;8427;52.204;7.202;2023-05-21T02:31:40;12.90;81.80
16627;DHT22;8427;52.204;7.202;2023-05-21T02:34:08;12.90;81.90
16627;DHT22;8427;52.204;7.202;2023-05-21T02:36:36;12.90;82.10
16627;DHT22;8427;52.204;7.202;2023-05-21T02:39:07;13.00;82.20
16627;DHT22;8427;52.204;7.202;2023-05-21T02:41:34;12.90;82.10
16627;DHT22;8427;52.204;7.202;2023-05-21T02:44:03;12.90;82.00
16627;DHT22;8427;52.204;7.202;2023-05-21T02:46:31;13.00;82.50
16627;DHT22;8427;52.204;7.202;2023-05-21T02:49:01;12.90;82.40
16627;DHT22;8427;52.204;7.202;2023-05-21T02:51:28;12.80;82.30
16627;DHT22;8427;52.204;7.202;2023-05-21T02:53:57;12.90;82.50
16627;DHT22;8427;52.204;7.202;2023-05-21T02:56:25;12.90;82.60
16627;DHT22;8427;52.204;7.202;2023-05-21T02:58:52;12.80;82.60
16627;DHT22;8427;52.204;7.202;2023-05-21T03:01:20;12.80;82.70
16627;DHT22;8427;52.204;7.202;2023-05-21T03:03:48;12.80;82.90
16627;DHT22;8427;52.204;7.202;2023-05-21T03:06:18;12.80;82.70
16627;DHT22;8427;52.204;7.202;2023-05-21T03:08:46;12.90;82.70
16627;DHT22;8427;52.204;7.202;2023-05-21T03:11:14;12.90;82.50
16627;DHT22;8427;52.204;7.202;2023-05-21T03:13:42;12.90;82.80
16627;DHT22;8427;52.204;7.202;2023-05-21T03:16:10;12.80;82.40
16627;DHT22;8427;52.204;7.202;2023-05-21T03:18:38;12.90;82.40
16627;DHT22;8427;52.204;7.202;2023-05-21T03:21:06;12.90;82.30
16627;DHT22;8427;52.204;7.202;2023-05-21T03:23:35;12.90;82.20
16627;DHT22;8427;52.204;7.202;2023-05-21T03:26:03;13.00;82.20
16627;DHT22;8427;52.204;7.202;2023-05-21T03:28:31;12.90;82.20
16627;DHT22;8427;52.204;7.202;2023-05-21T03:30:59;13.00;82.00
16627;DHT22;8427;52.204;7.202;2023-05-21T03:33:27;12.90;81.90
16627;DHT22;8427;52.204;7.202;2023-05-21T03:35:55;12.90;82.00
16627;DHT22;8427;52.204;7.202;2023-05-21T03:38:23;13.00;82.00
16627;DHT22;8427;52.204;7.202;2023-05-21T03:40:53;13.00;82.10
16627;DHT22;8427;52.204;7.202;2023-05-21T03:43:21;13.00;82.00
16627;DHT22;8427;52.204;7.202;2023-05-21T03:45:49;13.00;82.10
16627;DHT22;8427;52.204;7.202;2023-05-21T03:48:17;13.00;82.10
16627;DHT22;8427;52.204;7.202;2023-05-21T03:50:45;13.10;81.80
16627;DHT22;8427;52.204;7.202;2023-05-21T03:53:13;13.00;82.00
16627;DHT22;8427;52.204;7.202;2023-05-21T03:55:41;13.00;81.80
16627;DHT22;8427;52.204;7.202;2023-05-21T03:58:10;13.00;82.10
16627;DHT22;8427;52.204;7.202;2023-05-21T04:00:38;13.00;82.00
16627;DHT22;8427;52.204;7.202;2023-05-21T04:03:06;13.00;81.90
16627;DHT22;8427;52.204;7.202;2023-05-21T04:05:35;13.00;82.00
16627;DHT22;8427;52.204;7.202;2023-05-21T04:08:03;13.10;81.90
16627;DHT22;8427;52.204;7.202;2023-05-21T04:10:31;13.10;82.00
16627;DHT22;8427;52.204;7.202;2023-05-21T04:12:59;13.10;81.60
16627;DHT22;8427;52.204;7.202;2023-05-21T04:15:29;13.10;81.60
16627;DHT22;8427;52.204;7.202;2023-05-21T04:17:57;13.20;81.70
16627;DHT22;8427;52.204;7.202;2023-05-21T04:20:26;13.20;81.60
16627;DHT22;8427;52.204;7.202;2023-05-21T04:22:54;13.20;81.40
16627;DHT22;8427;52.204;7.202;2023-05-21T04:25:22;13.20;81.50
16627;DHT22;8427;52.204;7.202;2023-05-21T04:27:51;13.20;81.50
16627;DHT22;8427;52.204;7.202;2023-05-21T04:30:20;13.30;81.60
16627;DHT22;8427;52.204;7.202;2023-05-21T04:32:50;13.30;81.60
16627;DHT22;8427;52.204;7.202;2023-05-21T04:35:20;13.30;81.20
16627;DHT22;8427;52.204;7.202;2023-05-21T04:37:49;13.40;81.20
16627;DHT22;8427;52.204;7.202;2023-05-21T04:40:17;13.30;81.50
16627;DHT22;8427;52.204;7.202;2023-05-21T04:42:50;13.40;81.20
16627;DHT22;8427;52.204;7.202;2023-05-21T04:45:18;13.40;81.20
16627;DHT22;8427;52.204;7.202;2023-05-21T04:47:46;13.40;80.90
16627;DHT22;8427;52.204;7.202;2023-05-21T04:50:16;13.50;80.90
16627;DHT22;8427;52.204;7.202;2023-05-21T04:52:44;13.50;80.60
16627;DHT22;8427;52.204;7.202;2023-05-21T04:55:12;13.60;80.80
16627;DHT22;8427;52.204;7.202;2023-05-21T04:57:40;13.60;80.80
16627;DHT22;8427;52.204;7.202;2023-05-21T05:00:09;13.60;80.30
16627;DHT22;8427;52.204;7.202;2023-05-21T05:02:38;13.60;80.40
16627;DHT22;8427;52.204;7.202;2023-05-21T05:05:06;13.70;80.80
16627;DHT22;8427;52.204;7.202;2023-05-21T05:07:36;13.70;79.90
16627;DHT22;8427;52.204;7.202;2023-05-21T05:10:04;13.80;80.10
16627;DHT22;8427;52.204;7.202;2023-05-21T05:12:32;13.90;80.80
16627;DHT22;8427;52.204;7.202;2023-05-21T05:15:00;13.90;79.70
16627;DHT22;8427;52.204;7.202;2023-05-21T05:17:28;13.90;79.20
16627;DHT22;8427;52.204;7.202;2023-05-21T05:19:56;13.80;79.50
16627;DHT22;8427;52.204;7.202;2023-05-21T05:22:24;13.90;79.60
16627;DHT22;8427;52.204;7.202;2023-05-21T05:24:54;14.00;79.40
16627;DHT22;8427;52.204;7.202;2023-05-21T05:27:22;14.00;79.10
16627;DHT22;8427;52.204;7.202;2023-05-21T05:29:50;14.10;79.50
16627;DHT22;8427;52.204;7.202;2023-05-21T05:32:18;14.10;78.50
16627;DHT22;8427;52.204;7.202;2023-05-21T05:34:46;14.10;78.80
16627;DHT22;8427;52.204;7.202;2023-05-21T05:37:14;14.10;78.80
16627;DHT22;8427;52.204;7.202;2023-05-21T05:39:42;14.20;78.90
16627;DHT22;8427;52.204;7.202;2023-05-21T05:42:11;14.20;78.80
16627;DHT22;8427;52.204;7.202;2023-05-21T05:44:39;14.20;77.80
16627;DHT22;8427;52.204;7.202;2023-05-21T05:47:07;14.20;78.30
16627;DHT22;8427;52.204;7.202;2023-05-21T05:49:36;14.30;77.70
16627;DHT22;8427;52.204;7.202;2023-05-21T05:52:05;14.40;77.60
16627;DHT22;8427;52.204;7.202;2023-05-21T05:54:33;14.40;77.60
16627;DHT22;8427;52.204;7.202;2023-05-21T05:57:01;14.50;77.50
16627;DHT22;8427;52.204;7.202;2023-05-21T05:59:30;14.50;77.80
16627;DHT22;8427;52.204;7.202;2023-05-21T06:01:59;14.60;77.70
16627;DHT22;8427;52.204;7.202;2023-05-21T06:04:27;14.60;77.10
16627;DHT22;8427;52.204;7.202;2023-05-21T06:06:56;14.70;77.20
16627;DHT22;8427;52.204;7.202;2023-05-21T06:09:24;14.80;76.90
16627;DHT22;8427;52.204;7.202;2023-05-21T06:11:52;14.90;76.90
16627;DHT22;8427;52.204;7.202;2023-05-21T06:14:20;14.90;76.70
16627;DHT22;8427;52.204;7.202;2023-05-21T06:16:49;15.00;76.90
16627;DHT22;8427;52.204;7.202;2023-05-21T06:19:17;15.00;75.70
16627;DHT22;8427;52.204;7.202;2023-05-21T06:21:48;15.00;75.60
16627;DHT22;8427;52.204;7.202;2023-05-21T06:24:17;15.10;75.80
16627;DHT22;8427;52.204;7.202;2023-05-21T06:26:45;15.10;75.70
16627;DHT22;8427;52.204;7.202;2023-05-21T06:29:13;15.20;75.70
16627;DHT22;8427;52.204;7.202;2023-05-21T06:31:42;15.20;75.80
16627;DHT22;8427;52.204;7.202;2023-05-21T06:34:11;15.50;76.00
16627;DHT22;8427;52.204;7.202;2023-05-21T06:36:39;15.50;75.80
16627;DHT22;8427;52.204;7.202;2023-05-21T06:39:07;15.60;75.10
16627;DHT22;8427;52.204;7.202;2023-05-21T06:41:35;15.80;74.30
16627;DHT22;8427;52.204;7.202;2023-05-21T06:44:04;15.80;73.30
16627;DHT22;8427;52.204;7.202;2023-05-21T06:46:32;15.90;73.40
16627;DHT22;8427;52.204;7.202;2023-05-21T06:49:01;15.90;72.90
16627;DHT22;8427;52.204;7.202;2023-05-21T06:51:30;16.10;73.20
16627;DHT22;8427;52.204;7.202;2023-05-21T06:53:58;16.20;70.90
16627;DHT22;8427;52.204;7.202;2023-05-21T06:56:26;16.30;70.00
16627;DHT22;8427;52.204;7.202;2023-05-21T06:58:54;16.30;71.30
16627;DHT22;8427;52.204;7.202;2023-05-21T07:01:22;16.30;71.70
16627;DHT22;8427;52.204;7.202;2023-05-21T07:03:50;16.50;70.50
16627;DHT22;8427;52.204;7.202;2023-05-21T07:06:18;16.60;71.10
16627;DHT22;8427;52.204;7.202;2023-05-21T07:08:47;16.60;68.80
16627;DHT22;8427;52.204;7.202;2023-05-21T07:11:16;16.60;69.80
16627;DHT22;8427;52.204;7.202;2023-05-21T07:13:44;16.50;70.30
16627;DHT22;8427;52.204;7.202;2023-05-21T07:16:11;16.60;69.30
16627;DHT22;8427;52.204;7.202;2023-05-21T07:18:40;16.70;70.00
16627;DHT22;8427;52.204;7.202;2023-05-21T07:21:08;17.00;70.80
16627;DHT22;8427;52.204;7.202;2023-05-21T07:23:36;17.30;70.40
16627;DHT22;8427;52.204;7.202;2023-05-21T07:26:05;17.30;68.80
16627;DHT22;8427;52.204;7.202;2023-05-21T07:28:33;17.20;68.30
16627;DHT22;8427;52.204;7.202;2023-05-21T07:31:01;17.20;69.20
16627;DHT22;8427;52.204;7.202;2023-05-21T07:33:29;17.10;67.90
16627;DHT22;8427;52.204;7.202;2023-05-21T07:35:57;17.10;69.70
16627;DHT22;8427;52.204;7.202;2023-05-21T07:38:25;17.20;68.70
16627;DHT22;8427;52.204;7.202;2023-05-21T07:40:53;17.20;68.90
16627;DHT22;8427;52.204;7.202;2023-05-21T07:43:22;17.20;68.90
16627;DHT22;8427;52.204;7.202;2023-05-21T07:45:50;17.20;68.40
16627;DHT22;8427;52.204;7.202;2023-05-21T07:48:18;17.10;68.80
16627;DHT22;8427;52.204;7.202;2023-05-21T07:50:46;17.20;69.50
16627;DHT22;8427;52.204;7.202;2023-05-21T07:53:15;17.50;68.60
16627;DHT22;8427;52.204;7.202;2023-05-21T07:55:43;17.60;67.80
16627;DHT22;8427;52.204;7.202;2023-05-21T07:58:14;17.80;67.30
16627;DHT22;8427;52.204;7.202;2023-05-21T08:00:45;17.90;66.40
16627;DHT22;8427;52.204;7.202;2023-05-21T08:03:14;17.80;65.70
16627;DHT22;8427;52.204;7.202;2023-05-21T08:05:43;17.90;67.70
16627;DHT22;8427;52.204;7.202;2023-05-21T08:08:14;18.10;67.20
16627;DHT22;8427;52.204;7.202;2023-05-21T08:10:42;18.10;67.30
16627;DHT22;8427;52.204;7.202;2023-05-21T08:13:11;18.40;67.00
16627;DHT22;8427;52.204;7.202;2023-05-21T08:15:39;18.80;67.60
16627;DHT22;8427;52.204;7.202;2023-05-21T08:18:08;19.00;64.00
16627;DHT22;8427;52.204;7.202;2023-05-21T08:20:37;18.90;62.90
16627;DHT22;8427;52.204;7.202;2023-05-21T08:23:05;18.90;63.10
16627;DHT22;8427;52.204;7.202;2023-05-21T08:25:33;19.00;63.80
16627;DHT22;8427;52.204;7.202;2023-05-21T08:28:01;19.00;62.60
16627;DHT22;8427;52.204;7.202;2023-05-21T08:30:29;18.80;64.10
16627;DHT22;8427;52.204;7.202;2023-05-21T08:32:57;18.70;64.60
16627;DHT22;8427;52.204;7.202;2023-05-21T08:35:26;18.90;65.70
16627;DHT22;8427;52.204;7.202;2023-05-21T08:37:54;18.90;62.90
16627;DHT22;8427;52.204;7.202;2023-05-21T08:40:22;19.00;64.10
16627;DHT22;8427;52.204;7.202;2023-05-21T08:42:50;18.90;62.80
16627;DHT22;8427;52.204;7.202;2023-05-21T08:45:20;18.90;63.50
16627;DHT22;8427;52.204;7.202;2023-05-21T08:47:53;19.00;65.00
16627;DHT22;8427;52.204;7.202;2023-05-21T08:50:25;19.00;64.70
16627;DHT22;8427;52.204;7.202;2023-05-21T08:52:55;18.90;62.60
16627;DHT22;8427;52.204;7.202;2023-05-21T08:55:24;19.00;64.30
16627;DHT22;8427;52.204;7.202;2023-05-21T08:57:53;19.30;63.70
16627;DHT22;8427;52.204;7.202;2023-05-21T09:00:21;19.40;62.80
16627;DHT22;8427;52.204;7.202;2023-05-21T09:02:50;19.60;64.40
16627;DHT22;8427;52.204;7.202;2023-05-21T09:05:21;19.50;61.90
16627;DHT22;8427;52.204;7.202;2023-05-21T09:07:58;19.50;64.10
16627;DHT22;8427;52.204;7.202;2023-05-21T09:10:33;19.40;63.50
16627;DHT22;8427;52.204;7.202;2023-05-21T09:13:02;19.40;62.80
16627;DHT22;8427;52.204;7.202;2023-05-21T09:15:30;19.60;63.50
16627;DHT22;8427;52.204;7.202;2023-05-21T09:17:59;19.40;63.00
16627;DHT22;8427;52.204;7.202;2023-05-21T09:20:27;19.50;61.90
16627;DHT22;8427;52.204;7.202;2023-05-21T09:23:02;19.30;63.50
16627;DHT22;8427;52.204;7.202;2023-05-21T09:25:30;19.20;63.00
16627;DHT22;8427;52.204;7.202;2023-05-21T09:27:58;19.30;63.20
16627;DHT22;8427;52.204;7.202;2023-05-21T09:30:26;19.30;63.20
16627;DHT22;8427;52.204;7.202;2023-05-21T09:32:59;19.40;64.70
16627;DHT22;8427;52.204;7.202;2023-05-21T09:35:27;19.40;63.70
16627;DHT22;8427;52.204;7.202;2023-05-21T09:37:56;19.40;63.20
16627;DHT22;8427;52.204;7.202;2023-05-21T09:40:24;19.30;63.10
16627;DHT22;8427;52.204;7.202;2023-05-21T09:42:53;19.20;63.70
16627;DHT22;8427;52.204;7.202;2023-05-21T09:45:23;19.00;64.10
16627;DHT22;8427;52.204;7.202;2023-05-21T09:47:53;19.10;65.50
16627;DHT22;8427;52.204;7.202;2023-05-21T09:50:22;19.20;65.30
16627;DHT22;8427;52.204;7.202;2023-05-21T09:52:50;19.30;67.00
16627;DHT22;8427;52.204;7.202;2023-05-21T09:55:23;19.40;64.60
16627;DHT22;8427;52.204;7.202;2023-05-21T09:57:52;19.60;67.20
16627;DHT22;8427;52.204;7.202;2023-05-21T10:00:21;19.70;62.90
16627;DHT22;8427;52.204;7.202;2023-05-21T10:02:53;19.70;63.20
16627;DHT22;8427;52.204;7.202;2023-05-21T10:05:24;19.70;63.60
16627;DHT22;8427;52.204;7.202;2023-05-21T10:07:56;19.80;64.60
16627;DHT22;8427;52.204;7.202;2023-05-21T10:10:29;19.90;63.70
16627;DHT22;8427;52.204;7.202;2023-05-21T10:12:58;20.00;64.00
16627;DHT22;8427;52.204;7.202;2023-05-21T10:15:30;20.00;62.80
16627;DHT22;8427;52.204;7.202;2023-05-21T10:17:59;20.10;65.40
16627;DHT22;8427;52.204;7.202;2023-05-21T10:20:28;20.10;63.00
16627;DHT22;8427;52.204;7.202;2023-05-21T10:22:57;20.10;64.00
16627;DHT22;8427;52.204;7.202;2023-05-21T10:25:25;20.10;64.80
16627;DHT22;8427;52.204;7.202;2023-05-21T10:27:56;20.10;63.40
16627;DHT22;8427;52.204;7.202;2023-05-21T10:30:24;20.10;64.80
16627;DHT22;8427;52.204;7.202;2023-05-21T10:32:54;20.20;65.30
16627;DHT22;8427;52.204;7.202;2023-05-21T10:35:23;20.30;63.10
16627;DHT22;8427;52.204;7.202;2023-05-21T10:37:51;20.40;62.10
16627;DHT22;8427;52.204;7.202;2023-05-21T10:40:20;20.30;62.50
16627;DHT22;8427;52.204;7.202;2023-05-21T10:43:22;20.70;62.80
16627;DHT22;8427;52.204;7.202;2023-05-21T10:46:12;20.90;63.90
16627;DHT22;8427;52.204;7.202;2023-05-21T10:51:41;20.60;61.60
16627;DHT22;8427;52.204;7.202;2023-05-21T10:54:39;20.80;62.60
16627;DHT22;8427;52.204;7.202;2023-05-21T10:57:19;21.00;63.10
16627;DHT22;8427;52.204;7.202;2023-05-21T10:59:52;21.10;62.50
16627;DHT22;8427;52.204;7.202;2023-05-21T11:02:20;21.10;61.10
16627;DHT22;8427;52.204;7.202;2023-05-21T11:04:57;21.20;60.80
16627;DHT22;8427;52.204;7.202;2023-05-21T11:07:49;21.20;59.60
16627;DHT22;8427;52.204;7.202;2023-05-21T11:10:37;21.20;60.60
16627;DHT22;8427;52.204;7.202;2023-05-21T11:13:07;21.00;60.80
16627;DHT22;8427;52.204;7.202;2023-05-21T11:16:02;21.10;62.10
16627;DHT22;8427;52.204;7.202;2023-05-21T11:18:57;21.10;60.10
16627;DHT22;8427;52.204;7.202;2023-05-21T11:21:34;21.20;61.20
16627;DHT22;8427;52.204;7.202;2023-05-21T11:24:04;21.20;61.30
16627;DHT22;8427;52.204;7.202;2023-05-21T11:26:58;21.30;61.20
16627;DHT22;8427;52.204;7.202;2023-05-21T11:29:41;21.40;60.70
16627;DHT22;8427;52.204;7.202;2023-05-21T11:32:12;21.60;59.70
16627;DHT22;8427;52.204;7.202;2023-05-21T11:34:44;21.60;61.20
16627;DHT22;8427;52.204;7.202;2023-05-21T11:37:26;22.00;61.00
16627;DHT22;8427;52.204;7.202;2023-05-21T11:39:57;22.00;58.80
16627;DHT22;8427;52.204;7.202;2023-05-21T11:42:32;22.30;60.30
16627;DHT22;8427;52.204;7.202;2023-05-21T11:45:01;22.40;59.10
16627;DHT22;8427;52.204;7.202;2023-05-21T11:47:31;22.40;58.20
16627;DHT22;8427;52.204;7.202;2023-05-21T11:50:00;22.20;58.10
16627;DHT22;8427;52.204;7.202;2023-05-21T11:52:29;22.30;57.10
16627;DHT22;8427;52.204;7.202;2023-05-21T11:54:58;22.20;57.90
16627;DHT22;8427;52.204;7.202;2023-05-21T11:57:27;22.40;57.60
16627;DHT22;8427;52.204;7.202;2023-05-21T11:59:58;22.30;58.80
16627;DHT22;8427;52.204;7.202;2023-05-21T12:02:32;22.50;59.90
16627;DHT22;8427;52.204;7.202;2023-05-21T12:05:00;22.70;58.00
16627;DHT22;8427;52.204;7.202;2023-05-21T12:07:28;22.90;56.90
16627;DHT22;8427;52.204;7.202;2023-05-21T12:09:57;22.80;57.30
16627;DHT22;8427;52.204;7.202;2023-05-21T12:12:26;22.70;56.40
16627;DHT22;8427;52.204;7.202;2023-05-21T12:15:08;22.90;58.00
16627;DHT22;8427;52.204;7.202;2023-05-21T12:17:40;23.00;57.80
16627;DHT22;8427;52.204;7.202;2023-05-21T12:20:08;23.20;55.30
16627;DHT22;8427;52.204;7.202;2023-05-21T12:22:43;23.10;56.40
16627;DHT22;8427;52.204;7.202;2023-05-21T12:25:11;23.30;56.70
16627;DHT22;8427;52.204;7.202;2023-05-21T12:27:39;23.20;55.10
16627;DHT22;8427;52.204;7.202;2023-05-21T12:30:10;23.10;56.20
16627;DHT22;8427;52.204;7.202;2023-05-21T12:32:41;23.10;55.20
16627;DHT22;8427;52.204;7.202;2023-05-21T12:35:20;22.80;56.10
16627;DHT22;8427;52.204;7.202;2023-05-21T12:37:49;22.80;56.00
16627;DHT22;8427;52.204;7.202;2023-05-21T12:40:17;22.80;57.70
16627;DHT22;8427;52.204;7.202;2023-05-21T12:42:46;22.90;56.10
16627;DHT22;8427;52.204;7.202;2023-05-21T12:45:14;22.90;57.80
16627;DHT22;8427;52.204;7.202;2023-05-21T12:47:48;23.10;56.60
16627;DHT22;8427;52.204;7.202;2023-05-21T12:50:22;23.10;57.70
16627;DHT22;8427;52.204;7.202;2023-05-21T12:52:53;23.40;56.50
16627;DHT22;8427;52.204;7.202;2023-05-21T12:55:22;23.50;57.30
16627;DHT22;8427;52.204;7.202;2023-05-21T12:58:00;23.50;55.40
16627;DHT22;8427;52.204;7.202;2023-05-21T13:00:28;23.50;55.20
16627;DHT22;8427;52.204;7.202;2023-05-21T13:02:58;23.50;55.20
16627;DHT22;8427;52.204;7.202;2023-05-21T13:05:27;23.70;57.10
16627;DHT22;8427;52.204;7.202;2023-05-21T13:07:55;24.00;55.20
16627;DHT22;8427;52.204;7.202;2023-05-21T13:10:23;24.00;54.20
16627;DHT22;8427;52.204;7.202;2023-05-21T13:12:51;24.00;56.00
16627;DHT22;8427;52.204;7.202;2023-05-21T13:15:19;24.00;56.40
16627;DHT22;8427;52.204;7.202;2023-05-21T13:17:47;24.00;54.10
16627;DHT22;8427;52.204;7.202;2023-05-21T13:20:19;24.10;53.40
16627;DHT22;8427;52.204;7.202;2023-05-21T13:22:50;24.20;53.40
16627;DHT22;8427;52.204;7.202;2023-05-21T13:25:19;24.20;55.80
16627;DHT22;8427;52.204;7.202;2023-05-21T13:27:48;24.40;56.10
16627;DHT22;8427;52.204;7.202;2023-05-21T13:30:16;24.50;54.60
16627;DHT22;8427;52.204;7.202;2023-05-21T13:32:44;24.40;55.30
16627;DHT22;8427;52.204;7.202;2023-05-21T13:35:12;24.40;53.50
16627;DHT22;8427;52.204;7.202;2023-05-21T13:37:43;24.40;54.00
16627;DHT22;8427;52.204;7.202;2023-05-21T13:40:13;24.50;57.30
16627;DHT22;8427;52.204;7.202;2023-05-21T13:42:42;24.60;55.50
16627;DHT22;8427;52.204;7.202;2023-05-21T13:45:13;24.50;54.80
16627;DHT22;8427;52.204;7.202;2023-05-21T13:47:42;24.20;54.10
16627;DHT22;8427;52.204;7.202;2023-05-21T13:50:11;24.20;54.80
16627;DHT22;8427;52.204;7.202;2023-05-21T13:52:39;24.20;56.50
16627;DHT22;8427;52.204;7.202;2023-05-21T13:55:09;24.30;55.70
16627;DHT22;8427;52.204;7.202;2023-05-21T13:57:37;24.40;55.90
16627;DHT22;8427;52.204;7.202;2023-05-21T14:00:07;24.50;55.70
16627;DHT22;8427;52.204;7.202;2023-05-21T14:02:39;24.60;54.00
16627;DHT22;8427;52.204;7.202;2023-05-21T14:05:09;24.50;55.00
16627;DHT22;8427;52.204;7.202;2023-05-21T14:07:37;24.60;53.90
16627;DHT22;8427;52.204;7.202;2023-05-21T14:10:08;24.50;55.10
16627;DHT22;8427;52.204;7.202;2023-05-21T14:12:37;24.60;54.60
16627;DHT22;8427;52.204;7.202;2023-05-21T14:15:06;24.50;54.80
16627;DHT22;8427;52.204;7.202;2023-05-21T14:17:35;24.50;53.60
16627;DHT22;8427;52.204;7.202;2023-05-21T14:20:03;24.50;54.60
16627;DHT22;8427;52.204;7.202;2023-05-21T14:22:31;24.50;56.70
16627;DHT22;8427;52.204;7.202;2023-05-21T14:24:59;24.50;56.90
16627;DHT22;8427;52.204;7.202;2023-05-21T14:27:30;24.60;55.70
16627;DHT22;8427;52.204;7.202;2023-05-21T14:29:58;24.40;55.60
16627;DHT22;8427;52.204;7.202;2023-05-21T14:32:26;24.40;54.80
16627;DHT22;8427;52.204;7.202;2023-05-21T14:34:54;24.20;55.60
16627;DHT22;8427;52.204;7.202;2023-05-21T14:37:22;24.30;54.60
16627;DHT22;8427;52.204;7.202;2023-05-21T14:39:50;24.40;56.30
16627;DHT22;8427;52.204;7.202;2023-05-21T14:42:18;24.40;55.50
16627;DHT22;8427;52.204;7.202;2023-05-21T14:44:47;24.40;54.80
16627;DHT22;8427;52.204;7.202;2023-05-21T14:47:15;24.50;56.20
16627;DHT22;8427;52.204;7.202;2023-05-21T14:49:44;24.50;55.20
16627;DHT22;8427;52.204;7.202;2023-05-21T14:52:12;24.50;57.20
16627;DHT22;8427;52.204;7.202;2023-05-21T14:54:40;24.60;56.40
16627;DHT22;8427;52.204;7.202;2023-05-21T14:57:08;24.60;55.80
16627;DHT22;8427;52.204;7.202;2023-05-21T14:59:36;24.70;56.50
16627;DHT22;8427;52.204;7.202;2023-05-21T15:02:05;24.50;54.80
16627;DHT22;8427;52.204;7.202;2023-05-21T15:04:33;24.60;57.30
16627;DHT22;8427;52.204;7.202;2023-05-21T15:07:01;24.70;57.60
16627;DHT22;8427;52.204;7.202;2023-05-21T15:09:29;24.90;54.50
16627;DHT22;8427;52.204;7.202;2023-05-21T15:11:57;25.00;55.30
16627;DHT22;8427;52.204;7.202;2023-05-21T15:14:25;25.20;55.90
16627;DHT22;8427;52.204;7.202;2023-05-21T15:16:53;25.20;53.40
16627;DHT22;8427;52.204;7.202;2023-05-21T15:19:22;25.10;54.20
16627;DHT22;8427;52.204;7.202;2023-05-21T15:21:51;25.10;53.10
16627;DHT22;8427;52.204;7.202;2023-05-21T15:24:19;25.10;53.20
16627;DHT22;8427;52.204;7.202;2023-05-21T15:26:47;25.00;53.90
16627;DHT22;8427;52.204;7.202;2023-05-21T15:29:15;24.80;54.60
16627;DHT22;8427;52.204;7.202;2023-05-21T15:31:43;24.80;55.40
16627;DHT22;8427;52.204;7.202;2023-05-21T15:34:11;24.90;57.30
16627;DHT22;8427;52.204;7.202;2023-05-21T15:36:41;25.00;56.90
16627;DHT22;8427;52.204;7.202;2023-05-21T15:39:09;24.90;54.30
16627;DHT22;8427;52.204;7.202;2023-05-21T15:41:37;24.80;55.40
16627;DHT22;8427;52.204;7.202;2023-05-21T15:44:06;24.80;54.90
16627;DHT22;8427;52.204;7.202;2023-05-21T15:46:34;24.90;54.40
16627;DHT22;8427;52.204;7.202;2023-05-21T15:49:02;24.80;54.70
16627;DHT22;8427;52.204;7.202;2023-05-21T15:51:30;24.70;54.30
16627;DHT22;8427;52.204;7.202;2023-05-21T15:54:00;24.70;54.50
16627;DHT22;8427;52.204;7.202;2023-05-21T15:56:28;24.60;54.30
16627;DHT22;8427;52.204;7.202;2023-05-21T15:58:56;24.50;55.80
16627;DHT22;8427;52.204;7.202;2023-05-21T16:01:27;24.50;55.60
16627;DHT22;8427;52.204;7.202;2023-05-21T16:03:55;24.40;55.30